createdAt,value
2017-09-27T00:01:25.070Z,71.90
2017-09-27T00:03:59.113Z,72.30
2017-09-27T00:06:32.084Z,72.30
2017-09-27T00:09:03.157Z,72.60
2017-09-27T00:11:35.524Z,73.00
2017-09-27T00:14:07.384Z,72.60
2017-09-27T00:16:39.440Z,72.60
2017-09-27T00:19:11.766Z,72.70
2017-09-27T00:21:43.455Z,73.00
2017-09-27T00:24:13.747Z,72.90
2017-09-27T00:26:47.351Z,72.80
2017-09-27T00:29:20.344Z,73.10
2017-09-27T00:31:52.485Z,73.00
2017-09-27T00:34:26.156Z,73.10
2017-09-27T00:36:58.548Z,73.10
2017-09-27T00:39:30.432Z,73.10
2017-09-27T00:42:02.758Z,72.90
2017-09-27T00:44:31.962Z,72.80
2017-09-27T00:47:04.324Z,73.00
2017-09-27T00:49:35.312Z,72.90
2017-09-27T00:52:06.832Z,73.00
2017-09-27T00:54:38.589Z,73.00
2017-09-27T00:57:12.048Z,73.30
2017-09-27T00:59:44.222Z,73.20
2017-09-27T01:02:16.825Z,73.20
2017-09-27T01:04:48.247Z,73.10
2017-09-27T01:07:19.949Z,73.10
2017-09-27T01:09:52.332Z,73.30
2017-09-27T01:12:24.416Z,73.30
2017-09-27T01:14:55.231Z,73.30
2017-09-27T01:17:30.133Z,73.30
2017-09-27T01:19:59.036Z,73.20
2017-09-27T01:22:29.442Z,73.10
2017-09-27T01:25:01.599Z,73.50
2017-09-27T01:27:34.584Z,73.50
2017-09-27T01:30:05.659Z,73.50
2017-09-27T01:32:38.329Z,73.10
2017-09-27T01:35:09.512Z,72.70
2017-09-27T01:37:42.039Z,73.00
2017-09-27T01:40:11.557Z,73.20
2017-09-27T01:42:44.845Z,73.30
2017-09-27T01:45:17.095Z,73.30
2017-09-27T01:47:46.381Z,73.10
2017-09-27T01:50:16.822Z,72.50
2017-09-27T01:52:48.974Z,72.90
2017-09-27T01:55:19.085Z,72.80
2017-09-27T01:57:51.387Z,72.80
2017-09-27T02:00:21.522Z,72.90
2017-09-27T02:02:54.537Z,73.00
2017-09-27T02:05:28.086Z,73.30
2017-09-27T02:08:01.798Z,73.10
2017-09-27T02:10:35.645Z,73.30
2017-09-27T02:13:06.981Z,73.30
2017-09-27T02:15:40.485Z,73.30
2017-09-27T02:18:11.997Z,73.30
2017-09-27T02:20:44.512Z,73.50
2017-09-27T02:23:17.380Z,73.30
2017-09-27T02:25:50.130Z,73.20
2017-09-27T02:28:22.012Z,73.00
2017-09-27T02:30:53.311Z,72.80
2017-09-27T02:33:23.547Z,72.80
2017-09-27T02:35:54.850Z,72.80
2017-09-27T02:38:26.993Z,73.00
2017-09-27T02:40:56.315Z,73.00
2017-09-27T02:43:28.030Z,73.30
2017-09-27T02:46:00.340Z,72.70
2017-09-27T02:48:32.369Z,72.90
2017-09-27T02:51:06.255Z,73.80
2017-09-27T02:53:38.557Z,72.80
2017-09-27T02:56:10.915Z,72.80
2017-09-27T02:58:41.164Z,72.90
2017-09-27T03:01:12.601Z,72.60
2017-09-27T03:03:43.417Z,72.90
2017-09-27T03:06:13.919Z,73.10
2017-09-27T03:08:43.681Z,73.40
2017-09-27T03:11:12.881Z,73.40
2017-09-27T03:13:43.930Z,73.40
2017-09-27T03:16:14.991Z,73.40
2017-09-27T03:18:45.904Z,73.20
2017-09-27T03:21:16.736Z,73.90
2017-09-27T03:23:48.070Z,73.70
2017-09-27T03:26:19.272Z,73.80
2017-09-27T03:28:50.907Z,73.70
2017-09-27T03:31:20.844Z,73.80
2017-09-27T03:33:50.858Z,74.60
2017-09-27T03:36:21.980Z,74.80
2017-09-27T03:38:52.648Z,74.70
2017-09-27T03:41:23.386Z,74.70
2017-09-27T03:43:54.185Z,74.70
2017-09-27T03:46:26.413Z,74.70
2017-09-27T03:48:59.900Z,74.70
2017-09-27T03:51:31.790Z,75.10
2017-09-27T03:54:03.240Z,75.50
2017-09-27T03:56:33.157Z,75.50
2017-09-27T03:59:04.453Z,75.80
2017-09-27T04:01:36.576Z,76.20
2017-09-27T04:04:05.645Z,76.20
2017-09-27T04:06:35.411Z,76.30
2017-09-27T04:09:05.500Z,76.20
2017-09-27T04:11:33.660Z,76.40
2017-09-27T04:14:04.425Z,76.60
2017-09-27T04:16:36.003Z,76.60
2017-09-27T04:19:07.803Z,76.60
2017-09-27T04:24:17.013Z,76.90
2017-09-27T04:26:47.685Z,76.90
2017-09-27T04:29:17.565Z,77.20
2017-09-27T04:31:49.954Z,77.40
2017-09-27T04:34:21.116Z,77.40
2017-09-27T04:36:51.125Z,77.30
2017-09-27T04:39:21.218Z,77.60
2017-09-27T04:41:53.374Z,78.20
2017-09-27T04:44:26.265Z,78.60
2017-09-27T04:46:56.714Z,78.60
2017-09-27T04:49:25.785Z,78.70
2017-09-27T04:51:54.776Z,78.40
2017-09-27T04:57:02.484Z,77.90
2017-09-27T04:59:32.150Z,77.90
2017-09-27T05:02:03.201Z,78.00
2017-09-27T05:04:35.700Z,78.00
2017-09-27T05:07:06.805Z,77.90
2017-09-27T05:09:38.198Z,77.80
2017-09-27T05:12:09.778Z,77.80
2017-09-27T05:14:39.440Z,77.80
2017-09-27T05:17:08.912Z,78.70
2017-09-27T05:19:39.646Z,77.60
2017-09-27T05:22:09.557Z,77.80
2017-09-27T05:24:40.964Z,77.70
2017-09-27T05:27:13.196Z,77.60
2017-09-27T05:29:44.069Z,77.60
2017-09-27T05:32:15.421Z,77.30
2017-09-27T05:34:47.229Z,77.90
2017-09-27T05:37:17.195Z,77.10
2017-09-27T05:39:46.860Z,77.00
2017-09-27T05:42:18.253Z,77.20
2017-09-27T05:44:48.337Z,77.30
2017-09-27T05:47:18.393Z,77.30
2017-09-27T05:49:49.058Z,78.00
2017-09-27T05:52:20.205Z,77.70
2017-09-27T05:54:49.756Z,77.50
2017-09-27T05:57:20.595Z,77.20
2017-09-27T05:59:50.316Z,77.30
2017-09-27T06:02:21.531Z,77.40
2017-09-27T06:04:52.745Z,77.30
2017-09-27T06:07:21.495Z,77.20
2017-09-27T06:09:51.642Z,77.10
2017-09-27T06:12:30.579Z,77.50
2017-09-27T06:15:01.117Z,77.30
2017-09-27T06:17:31.121Z,77.50
2017-09-27T06:20:01.477Z,77.40
2017-09-27T06:22:30.547Z,77.30
2017-09-27T06:25:02.097Z,77.60
2017-09-27T06:27:31.672Z,77.70
2017-09-27T06:30:01.630Z,77.60
2017-09-27T06:32:30.966Z,77.60
2017-09-27T06:35:01.152Z,77.50
2017-09-27T06:37:31.255Z,77.60
2017-09-27T06:40:01.234Z,77.50
2017-09-27T06:42:31.087Z,77.80
2017-09-27T06:45:00.183Z,77.70
2017-09-27T06:47:31.020Z,78.70
2017-09-27T06:50:01.947Z,78.40
2017-09-27T06:52:32.289Z,78.10
2017-09-27T06:55:02.439Z,78.10
2017-09-27T06:57:33.845Z,78.10
2017-09-27T07:00:04.033Z,78.00
2017-09-27T07:02:34.966Z,77.90
2017-09-27T07:05:04.240Z,77.80
2017-09-27T07:07:35.352Z,78.50
2017-09-27T07:10:05.680Z,78.00
2017-09-27T07:12:35.310Z,77.90
2017-09-27T07:15:05.404Z,77.80
2017-09-27T07:17:36.545Z,77.90
2017-09-27T07:20:06.284Z,78.20
2017-09-27T07:22:35.491Z,78.20
2017-09-27T07:25:05.852Z,78.40
2017-09-27T07:27:34.382Z,78.20
2017-09-27T07:30:03.970Z,78.50
2017-09-27T07:32:34.608Z,78.60
2017-09-27T07:35:05.149Z,79.10
2017-09-27T07:37:33.768Z,79.10
2017-09-27T07:40:03.670Z,79.60
2017-09-27T07:42:32.301Z,79.60
2017-09-27T07:45:00.862Z,79.50
2017-09-27T07:47:29.123Z,79.90
2017-09-27T07:49:59.652Z,79.80
2017-09-27T07:52:28.445Z,79.70
2017-09-27T07:54:56.849Z,80.10
2017-09-27T07:57:27.498Z,79.30
2017-09-27T07:59:55.828Z,79.20
2017-09-27T08:02:26.272Z,79.80
2017-09-27T08:04:57.141Z,78.60
2017-09-27T08:07:26.389Z,79.00
2017-09-27T08:09:55.638Z,78.40
2017-09-27T08:12:26.081Z,78.60
2017-09-27T08:14:56.408Z,78.50
2017-09-27T08:17:27.705Z,79.10
2017-09-27T08:19:56.996Z,78.40
2017-09-27T08:22:26.563Z,78.30
2017-09-27T08:24:55.701Z,77.70
2017-09-27T08:27:26.364Z,77.60
2017-09-27T08:29:55.365Z,77.40
2017-09-27T08:32:25.868Z,77.70
2017-09-27T08:34:57.022Z,77.00
2017-09-27T08:37:26.873Z,76.90
2017-09-27T08:39:57.812Z,77.50
2017-09-27T08:42:28.596Z,76.80
2017-09-27T08:44:57.899Z,76.80
2017-09-27T08:47:27.041Z,75.20
2017-09-27T08:49:56.279Z,75.10
2017-09-27T08:52:25.748Z,73.80
2017-09-27T08:54:55.782Z,73.80
2017-09-27T08:57:26.293Z,73.80
2017-09-27T08:59:56.497Z,73.20
2017-09-27T09:02:24.985Z,71.40
2017-09-27T09:04:53.246Z,69.30
2017-09-27T09:07:23.008Z,66.60
2017-09-27T09:09:52.794Z,67.40
2017-09-27T09:12:22.214Z,65.00
2017-09-27T09:14:51.966Z,63.10
2017-09-27T09:17:21.021Z,63.60
2017-09-27T09:19:50.330Z,61.70
2017-09-27T09:22:18.769Z,62.40
2017-09-27T09:24:47.655Z,62.80
2017-09-27T09:27:17.299Z,62.10
2017-09-27T09:29:46.557Z,63.50
2017-09-27T09:32:15.780Z,63.90
2017-09-27T09:34:44.100Z,63.90
2017-09-27T09:37:12.473Z,64.60
2017-09-27T09:39:41.457Z,63.10
2017-09-27T09:42:09.612Z,63.90
2017-09-27T09:44:38.166Z,64.60
2017-09-27T09:47:06.579Z,63.40
2017-09-27T09:49:34.763Z,62.80
2017-09-27T09:52:03.055Z,63.50
2017-09-27T09:54:31.979Z,63.30
2017-09-27T09:57:00.273Z,63.30
2017-09-27T09:59:28.449Z,65.30
2017-09-27T10:01:56.601Z,64.90
2017-09-27T10:04:24.806Z,65.60
2017-09-27T10:06:53.326Z,65.80
2017-09-27T10:09:21.632Z,66.00
2017-09-27T10:11:50.152Z,65.00
2017-09-27T10:14:18.377Z,65.10
2017-09-27T10:16:47.709Z,66.20
2017-09-27T10:19:15.873Z,66.00
2017-09-27T10:21:44.067Z,66.20
2017-09-27T10:24:12.231Z,65.10
2017-09-27T10:26:41.227Z,64.80
2017-09-27T10:29:09.397Z,64.00
2017-09-27T10:31:37.765Z,63.60
2017-09-27T10:34:05.916Z,64.60
2017-09-27T10:36:34.083Z,64.30
2017-09-27T10:39:03.067Z,65.30
2017-09-27T10:41:31.222Z,65.30
2017-09-27T10:43:59.641Z,63.50
2017-09-27T10:46:27.788Z,63.30
2017-09-27T10:48:57.164Z,61.80
2017-09-27T10:51:25.372Z,61.70
2017-09-27T10:53:53.506Z,60.10
2017-09-27T10:56:21.684Z,58.80
2017-09-27T10:58:49.837Z,60.50
2017-09-27T11:01:18.382Z,58.30
2017-09-27T11:03:47.290Z,58.30
2017-09-27T11:06:40.023Z,58.20
2017-09-27T11:09:16.353Z,58.60
2017-09-27T11:11:44.549Z,58.50
2017-09-27T11:14:14.211Z,56.10
2017-09-27T11:16:55.403Z,56.10
2017-09-27T11:19:23.598Z,57.60
2017-09-27T11:21:53.258Z,57.80
2017-09-27T11:24:21.578Z,57.80
2017-09-27T11:26:49.745Z,56.40
2017-09-27T11:29:17.945Z,56.40
2017-09-27T11:31:46.093Z,55.90
2017-09-27T11:34:14.387Z,57.20
2017-09-27T11:36:42.538Z,55.70
2017-09-27T11:39:11.053Z,54.90
2017-09-27T11:41:40.008Z,55.30
2017-09-27T11:44:08.148Z,55.30
2017-09-27T11:46:36.329Z,55.00
2017-09-27T11:49:04.514Z,53.80
2017-09-27T11:51:32.818Z,54.30
2017-09-27T11:54:00.977Z,54.00
2017-09-27T11:56:29.121Z,52.60
2017-09-27T11:58:57.304Z,51.60
2017-09-27T12:01:25.454Z,53.30
2017-09-27T12:03:53.629Z,53.40
2017-09-27T12:06:21.787Z,52.60
2017-09-27T12:08:50.930Z,53.20
2017-09-27T12:11:19.090Z,53.10
2017-09-27T12:13:47.257Z,53.70
2017-09-27T12:16:15.441Z,53.30
2017-09-27T12:18:43.584Z,54.00
2017-09-27T12:21:12.546Z,53.40
2017-09-27T12:23:40.684Z,53.40
2017-09-27T12:26:08.929Z,52.80
2017-09-27T12:28:37.454Z,52.50
2017-09-27T12:33:46.760Z,52.40
2017-09-27T12:36:16.088Z,52.20
2017-09-27T12:38:45.292Z,51.40
2017-09-27T12:41:13.901Z,51.20
2017-09-27T12:43:43.084Z,50.30
2017-09-27T12:46:13.388Z,51.50
2017-09-27T12:48:43.678Z,51.40
2017-09-27T12:51:16.747Z,49.00
2017-09-27T12:53:45.928Z,50.50
2017-09-27T12:56:14.473Z,50.40
2017-09-27T12:58:43.978Z,50.80
2017-09-27T13:01:12.472Z,50.70
2017-09-27T13:03:41.771Z,51.00
2017-09-27T13:06:16.918Z,51.30
2017-09-27T13:08:54.094Z,51.40
2017-09-27T13:11:28.779Z,50.50
2017-09-27T13:13:59.862Z,50.50
2017-09-27T13:16:30.438Z,51.00
2017-09-27T13:19:00.920Z,50.30
2017-09-27T13:21:31.534Z,51.40
2017-09-27T13:24:01.350Z,51.40
2017-09-27T13:26:30.196Z,51.30
2017-09-27T13:28:59.486Z,52.30
2017-09-27T13:31:29.970Z,53.00
2017-09-27T13:33:59.172Z,53.00
2017-09-27T13:36:29.475Z,53.30
2017-09-27T13:39:01.173Z,53.30
2017-09-27T13:41:30.521Z,53.30
2017-09-27T13:44:01.254Z,53.30
2017-09-27T13:46:32.479Z,52.80
2017-09-27T13:49:01.868Z,52.40
2017-09-27T13:51:30.041Z,52.40
2017-09-27T13:53:58.228Z,52.60
2017-09-27T13:56:26.377Z,53.00
2017-09-27T13:58:54.591Z,51.60
2017-09-27T14:01:22.737Z,51.10
2017-09-27T14:03:51.154Z,51.80
2017-09-27T14:06:20.081Z,53.00
2017-09-27T14:08:48.399Z,52.90
2017-09-27T14:11:16.553Z,51.10
2017-09-27T14:13:44.742Z,52.80
2017-09-27T14:16:12.918Z,51.50
2017-09-27T14:18:41.100Z,51.90
2017-09-27T14:21:09.263Z,51.20
2017-09-27T14:23:37.433Z,51.70
2017-09-27T14:26:05.737Z,52.30
2017-09-27T14:28:34.124Z,53.20
2017-09-27T14:31:03.038Z,51.40
2017-09-27T14:33:31.216Z,51.40
2017-09-27T14:35:59.381Z,51.30
2017-09-27T14:38:27.558Z,50.70
2017-09-27T14:40:55.721Z,49.90
2017-09-27T14:43:23.993Z,50.20
2017-09-27T14:45:52.161Z,50.30
2017-09-27T14:48:20.348Z,49.10
2017-09-27T14:50:48.505Z,50.00
2017-09-27T14:53:17.428Z,50.40
2017-09-27T14:55:45.634Z,50.40
2017-09-27T14:58:13.785Z,51.00
2017-09-27T15:00:42.064Z,50.20
2017-09-27T15:03:10.206Z,50.30
2017-09-27T15:05:41.380Z,51.50
2017-09-27T15:08:10.041Z,51.00
2017-09-27T15:10:38.208Z,50.50
2017-09-27T15:13:06.409Z,51.30
2017-09-27T15:15:34.559Z,52.00
2017-09-27T15:18:02.775Z,51.50
2017-09-27T15:20:30.940Z,51.10
2017-09-27T15:22:59.244Z,51.00
2017-09-27T15:25:27.402Z,50.60
2017-09-27T15:27:55.605Z,51.30
2017-09-27T15:30:24.542Z,50.70
2017-09-27T15:32:52.693Z,50.70
2017-09-27T15:35:20.900Z,51.30
2017-09-27T15:37:49.521Z,51.40
2017-09-27T15:40:17.689Z,52.20
2017-09-27T15:42:46.011Z,51.90
2017-09-27T15:45:14.177Z,52.70
2017-09-27T15:47:42.730Z,52.40
2017-09-27T15:50:10.921Z,52.40
2017-09-27T15:52:39.097Z,51.70
2017-09-27T15:55:07.256Z,51.90
2017-09-27T15:57:36.316Z,52.20
2017-09-27T16:00:04.555Z,52.20
2017-09-27T16:02:32.746Z,52.40
2017-09-27T16:05:00.930Z,53.30
2017-09-27T16:07:29.096Z,53.00
2017-09-27T16:09:57.396Z,53.30
2017-09-27T16:12:25.574Z,53.40
2017-09-27T16:14:53.732Z,53.70
2017-09-27T16:17:21.985Z,54.20
2017-09-27T16:19:50.182Z,54.00
2017-09-27T16:22:18.385Z,54.50
2017-09-27T16:24:46.544Z,54.30
2017-09-27T16:27:14.741Z,54.40
2017-09-27T16:29:42.933Z,54.40
2017-09-27T16:32:11.862Z,54.20
2017-09-27T16:34:40.068Z,54.10
2017-09-27T16:37:08.259Z,54.50
2017-09-27T16:39:37.285Z,55.60
2017-09-27T16:42:05.445Z,55.00
2017-09-27T16:44:33.744Z,55.00
2017-09-27T16:47:02.744Z,55.20
2017-09-27T16:49:30.926Z,55.20
2017-09-27T16:51:59.095Z,55.40
2017-09-27T16:54:27.234Z,55.60
2017-09-27T16:56:55.786Z,55.30
2017-09-27T16:59:23.952Z,55.70
2017-09-27T17:01:52.269Z,55.90
2017-09-27T17:04:20.421Z,55.80
2017-09-27T17:06:49.383Z,56.40
2017-09-27T17:09:17.557Z,56.40
2017-09-27T17:11:45.730Z,56.30
2017-09-27T17:14:13.910Z,56.40
2017-09-27T17:16:42.093Z,56.70
2017-09-27T17:19:10.421Z,56.70
2017-09-27T17:21:38.606Z,57.10
2017-09-27T17:24:06.778Z,57.50
2017-09-27T17:26:34.962Z,57.70
2017-09-27T17:29:03.125Z,57.90
2017-09-27T17:31:31.310Z,58.10
2017-09-27T17:33:59.473Z,58.20
2017-09-27T17:36:27.761Z,58.30
2017-09-27T17:38:56.741Z,58.50
2017-09-27T17:41:24.915Z,58.70
2017-09-27T17:43:53.077Z,59.00
2017-09-27T17:46:21.224Z,58.90
2017-09-27T17:48:49.407Z,59.10
2017-09-27T17:51:18.328Z,59.10
2017-09-27T17:53:46.722Z,59.10
2017-09-27T17:56:14.868Z,59.40
2017-09-27T17:58:43.116Z,59.70
2017-09-27T18:01:11.888Z,60.00
2017-09-27T18:03:40.046Z,60.20
2017-09-27T18:06:08.256Z,60.50
2017-09-27T18:08:36.396Z,60.30
2017-09-27T18:11:04.631Z,60.20
2017-09-27T18:13:32.762Z,60.30
2017-09-27T18:16:00.957Z,60.30
2017-09-27T18:18:29.148Z,61.00
2017-09-27T18:20:57.319Z,60.40
2017-09-27T18:23:25.468Z,60.80
2017-09-27T18:25:54.517Z,61.00
2017-09-27T18:28:22.710Z,61.10
2017-09-27T18:30:50.881Z,61.00
2017-09-27T18:33:19.052Z,61.30
2017-09-27T18:35:47.237Z,61.40
2017-09-27T18:38:15.412Z,61.70
2017-09-27T18:40:43.584Z,61.80
2017-09-27T18:43:11.925Z,61.90
2017-09-27T18:45:43.770Z,61.90
2017-09-27T18:48:11.913Z,62.40
2017-09-27T18:50:40.101Z,62.50
2017-09-27T18:53:09.063Z,62.70
2017-09-27T18:55:37.233Z,62.70
2017-09-27T18:58:05.412Z,63.00
2017-09-27T19:00:33.637Z,63.20
2017-09-27T19:03:01.797Z,63.30
2017-09-27T19:05:30.719Z,64.20
2017-09-27T19:07:59.132Z,64.20
2017-09-27T19:10:27.309Z,64.00
2017-09-27T19:12:55.537Z,64.40
2017-09-27T19:15:23.700Z,64.30
2017-09-27T19:17:52.050Z,64.60
2017-09-27T19:20:21.034Z,65.00
2017-09-27T19:22:49.246Z,65.00
2017-09-27T19:25:17.420Z,64.90
2017-09-27T19:27:45.574Z,65.10
2017-09-27T19:30:14.566Z,64.90
2017-09-27T19:32:43.555Z,65.10
2017-09-27T19:35:11.875Z,65.10
2017-09-27T19:37:40.048Z,65.30
2017-09-27T19:40:10.652Z,65.50
2017-09-27T19:42:39.589Z,65.50
2017-09-27T19:45:07.783Z,65.50
2017-09-27T19:47:35.941Z,65.70
2017-09-27T19:50:04.178Z,65.90
2017-09-27T19:52:32.473Z,65.90
2017-09-27T19:55:00.626Z,66.20
2017-09-27T19:57:28.854Z,66.20
2017-09-27T19:59:57.020Z,66.30
2017-09-27T20:02:25.182Z,66.90
2017-09-27T20:04:53.375Z,66.90
2017-09-27T20:07:21.521Z,67.00
2017-09-27T20:09:49.715Z,67.00
2017-09-27T20:12:17.883Z,67.00
2017-09-27T20:14:46.125Z,67.30
2017-09-27T20:17:14.309Z,67.30
2017-09-27T20:19:42.644Z,67.40
2017-09-27T20:22:10.789Z,67.20
2017-09-27T20:24:38.929Z,68.20
2017-09-27T20:27:07.126Z,67.70
2017-09-27T20:29:35.284Z,68.00
2017-09-27T20:32:03.490Z,68.00
2017-09-27T20:34:31.645Z,68.20
2017-09-27T20:36:59.831Z,68.40
2017-09-27T20:39:27.990Z,68.60
2017-09-27T20:41:56.175Z,68.60
2017-09-27T20:44:24.353Z,68.60
2017-09-27T20:46:52.499Z,68.80
2017-09-27T20:49:20.783Z,68.60
2017-09-27T20:51:48.946Z,68.70
2017-09-27T20:54:17.117Z,68.80
2017-09-27T20:56:45.282Z,69.10
2017-09-27T20:59:13.457Z,69.10
2017-09-27T21:01:41.616Z,69.20
2017-09-27T21:04:09.753Z,69.20
2017-09-27T21:06:38.060Z,69.20
2017-09-27T21:09:06.977Z,69.50
2017-09-27T21:11:35.956Z,69.40
2017-09-27T21:14:04.109Z,69.40
2017-09-27T21:16:33.032Z,69.40
2017-09-27T21:19:01.351Z,69.40
2017-09-27T21:21:29.480Z,69.40
2017-09-27T21:23:57.661Z,69.40
2017-09-27T21:26:25.820Z,69.70
2017-09-27T21:28:54.020Z,69.60
2017-09-27T21:31:22.205Z,69.70
2017-09-27T21:33:50.346Z,69.60
2017-09-27T21:36:18.652Z,69.60
2017-09-27T21:38:46.789Z,69.70
2017-09-27T21:41:15.092Z,69.60
2017-09-27T21:43:43.244Z,69.60
2017-09-27T21:46:11.429Z,69.60
2017-09-27T21:48:39.591Z,70.00
2017-09-27T21:51:07.745Z,70.00
2017-09-27T21:53:36.013Z,70.00
2017-09-27T21:56:04.168Z,69.80
2017-09-27T21:58:32.379Z,70.00
2017-09-27T22:01:00.540Z,70.20
2017-09-27T22:03:29.480Z,70.10
2017-09-27T22:05:57.632Z,70.10
2017-09-27T22:08:25.768Z,70.10
2017-09-27T22:10:53.941Z,70.30
2017-09-27T22:13:22.849Z,70.30
2017-09-27T22:15:51.140Z,70.20
2017-09-27T22:18:19.285Z,70.30
2017-09-27T22:20:48.225Z,70.40
2017-09-27T22:23:16.372Z,70.40
2017-09-27T22:25:44.517Z,70.60
2017-09-27T22:28:13.478Z,70.60
2017-09-27T22:30:41.628Z,70.60
2017-09-27T22:33:09.824Z,70.70
2017-09-27T22:35:37.969Z,70.70
2017-09-27T22:38:06.141Z,71.10
2017-09-27T22:40:34.316Z,71.30
2017-09-27T22:43:02.452Z,71.30
2017-09-27T22:45:31.524Z,71.50
2017-09-27T22:47:59.678Z,71.50
2017-09-27T22:50:27.852Z,71.50
2017-09-27T22:52:56.137Z,71.70
2017-09-27T22:55:24.320Z,71.80
2017-09-27T22:57:52.534Z,71.50
2017-09-27T23:00:21.469Z,71.60
2017-09-27T23:02:49.603Z,71.50
2017-09-27T23:05:17.762Z,71.40
2017-09-27T23:07:46.710Z,71.70
2017-09-27T23:10:14.874Z,71.70
2017-09-27T23:12:43.021Z,71.70
2017-09-27T23:15:11.292Z,71.90
2017-09-27T23:17:39.440Z,71.80
2017-09-27T23:20:07.617Z,71.80
2017-09-27T23:22:36.540Z,71.90
2017-09-27T23:25:04.681Z,71.80
2017-09-27T23:27:33.644Z,72.00
2017-09-27T23:30:01.801Z,72.00
2017-09-27T23:32:30.081Z,71.90
2017-09-27T23:34:58.222Z,72.30
2017-09-27T23:37:26.408Z,72.10
2017-09-27T23:39:54.563Z,72.10
2017-09-27T23:42:22.841Z,72.10
2017-09-27T23:44:51.219Z,72.20
2017-09-27T23:47:20.151Z,72.20
2017-09-27T23:49:49.350Z,72.40
2017-09-27T23:52:17.500Z,72.40
2017-09-27T23:54:45.674Z,72.30
2017-09-27T23:57:13.818Z,72.30
2017-09-27T23:59:42.853Z,72.60
